Time;durP1;ratioP1;P1;durP2;ratioP2;P2;SDS_P1;SDS_P2;PMS_P1;PMS_P2;Temp;Humidity;BMP_temperature;BMP_pressure;BME280_temperature;BME280_humidity;BME280_pressure;Samples;Min_cycle;Max_cycle;Signal;HPM_P1;HPM_P2
2022/03/09 00:01:34;;;;;;;14.40;8.60;;;;;;;38.77;45.77;100620.81;4977022;28;20429;-77
2022/03/09 00:04:01;;;;;;;17.60;9.07;;;;;;;38.75;45.54;100620.34;4976981;28;20437;-78
2022/03/09 00:06:27;;;;;;;18.47;9.20;;;;;;;38.79;45.48;100621.28;4976878;28;20429;-77
2022/03/09 00:08:53;;;;;;;13.87;8.50;;;;;;;38.88;45.38;100617.47;4976391;28;20933;-79
2022/03/09 00:11:20;;;;;;;18.03;8.30;;;;;;;38.58;45.98;100611.03;4976454;28;20468;-79
2022/03/09 00:13:46;;;;;;;21.13;8.13;;;;;;;38.64;45.96;100604.34;4976843;28;20810;-79
2022/03/09 00:16:14;;;;;;;20.70;7.87;;;;;;;38.57;46.67;100606.75;4976724;28;20512;-78
2022/03/09 00:18:40;;;;;;;15.27;9.47;;;;;;;38.65;46.17;100599.72;4976738;28;20991;-78
2022/03/09 00:21:06;;;;;;;12.77;8.70;;;;;;;38.72;46.01;100600.06;4976776;28;20425;-77
2022/03/09 00:23:32;;;;;;;14.53;8.50;;;;;;;38.83;45.90;100595.94;4976579;28;20461;-80
2022/03/09 00:25:58;;;;;;;16.77;8.30;;;;;;;38.88;45.83;100595.78;4976587;28;20501;-80
2022/03/09 00:28:25;;;;;;;29.10;9.87;;;;;;;38.72;45.99;100591.16;4976512;28;20432;-79
2022/03/09 00:30:51;;;;;;;17.50;8.17;;;;;;;38.68;45.84;100588.25;4975830;28;20469;-77
2022/03/09 00:33:17;;;;;;;13.83;8.10;;;;;;;38.78;45.72;100587.97;4962231;28;20542;-77
2022/03/09 00:35:44;;;;;;;21.00;9.30;;;;;;;38.76;45.56;100576.66;4953537;29;20812;-80
2022/03/09 00:38:11;;;;;;;20.73;8.33;;;;;;;38.91;45.38;100573.44;4953661;29;20434;-80
2022/03/09 00:40:38;;;;;;;18.83;7.20;;;;;;;38.78;45.52;100568.19;4953195;28;20954;-79
2022/03/09 00:43:04;;;;;;;16.80;9.00;;;;;;;38.80;45.47;100568.69;4953847;29;20422;-77
2022/03/09 00:45:31;;;;;;;19.80;9.10;;;;;;;38.52;46.31;100560.81;4953758;29;20454;-77
2022/03/09 00:47:57;;;;;;;19.63;9.60;;;;;;;38.92;45.67;100566.13;4953775;29;20470;-77
2022/03/09 00:50:23;;;;;;;12.70;9.00;;;;;;;38.76;46.12;100565.00;4953166;29;20995;-77
2022/03/09 00:52:49;;;;;;;17.33;9.40;;;;;;;38.91;46.00;100561.81;4953231;29;20506;-80
2022/03/09 00:55:15;;;;;;;17.17;8.63;;;;;;;38.91;45.65;100551.75;4954557;28;20513;-77
2022/03/09 00:57:42;;;;;;;19.97;9.90;;;;;;;38.75;46.27;100552.56;4953164;29;20430;-78
2022/03/09 01:00:09;;;;;;;18.50;8.20;;;;;;;38.75;45.66;100556.06;4953609;29;20916;-79
2022/03/09 01:02:44;;;;;;;15.67;8.10;;;;;;;38.71;45.70;100555.06;4953188;29;20442;-78
2022/03/09 01:05:11;;;;;;;18.67;10.13;;;;;;;38.82;45.63;100555.59;4953353;29;20430;-78
2022/03/09 01:07:37;;;;;;;13.67;8.73;;;;;;;38.95;45.82;100546.50;4953215;29;20438;-80
2022/03/09 01:10:04;;;;;;;21.63;9.23;;;;;;;38.36;47.04;100543.41;4953156;28;20467;-79
2022/03/09 01:12:31;;;;;;;16.33;8.50;;;;;;;38.27;46.62;100540.69;4952979;29;20479;-79
2022/03/09 01:14:57;;;;;;;12.53;7.20;;;;;;;38.75;45.68;100536.31;4953081;29;20423;-78
2022/03/09 01:17:26;;;;;;;14.57;7.57;;;;;;;38.37;46.51;100536.91;4953248;29;20443;-78
2022/03/09 01:19:53;;;;;;;18.70;9.10;;;;;;;38.49;46.19;100539.78;4952958;29;20439;-77
2022/03/09 01:22:19;;;;;;;16.57;9.80;;;;;;;38.66;46.14;100537.06;4953181;29;20431;-77
2022/03/09 01:24:46;;;;;;;18.57;10.13;;;;;;;38.59;45.75;100533.22;4953095;29;20427;-77
2022/03/09 01:27:12;;;;;;;16.77;8.70;;;;;;;38.74;45.81;100526.59;4953019;29;20451;-77
2022/03/09 01:29:39;;;;;;;18.83;8.97;;;;;;;38.68;45.94;100529.41;4952969;29;20424;-78
2022/03/09 01:32:05;;;;;;;20.47;9.60;;;;;;;38.56;46.23;100529.25;4954455;28;20431;-77
2022/03/09 01:34:32;;;;;;;12.33;8.93;;;;;;;38.43;46.48;100532.91;4975208;28;20433;-77
2022/03/09 01:36:58;;;;;;;14.13;8.40;;;;;;;38.04;47.56;100526.41;4975404;28;20417;-79
2022/03/09 01:39:24;;;;;;;19.80;8.50;;;;;;;38.47;46.04;100522.22;4975160;28;20453;-79
2022/03/09 01:41:51;;;;;;;12.80;7.97;;;;;;;38.75;45.69;100520.03;4975388;28;20945;-77
2022/03/09 01:44:20;;;;;;;15.90;7.27;;;;;;;38.15;47.13;100518.81;4975261;28;21004;-77
2022/03/09 01:46:52;;;;;;;17.23;8.87;;;;;;;38.43;46.41;100505.81;4975023;28;20417;-79
2022/03/09 01:49:19;;;;;;;17.63;8.87;;;;;;;38.37;46.50;100509.81;4972588;28;20424;-77
2022/03/09 01:51:47;;;;;;;18.27;9.50;;;;;;;38.31;46.75;100505.66;4975135;28;20499;-78
2022/03/09 01:54:15;;;;;;;12.40;8.40;;;;;;;38.15;46.36;100506.06;4975014;28;20448;-78
2022/03/09 01:56:42;;;;;;;15.77;9.50;;;;;;;38.17;46.59;100506.53;4992038;28;20429;-77
2022/03/09 01:59:11;;;;;;;20.73;9.73;;;;;;;38.41;46.30;100497.19;4975230;28;20453;-79
2022/03/09 02:01:38;;;;;;;18.73;9.23;;;;;;;38.38;46.33;100508.69;4975093;28;20409;-79
2022/03/09 02:04:05;;;;;;;15.10;9.03;;;;;;;38.48;45.83;100505.63;4974510;28;20429;-79
2022/03/09 02:06:33;;;;;;;27.87;8.60;;;;;;;38.38;46.03;100498.63;4974900;28;20453;-79
2022/03/09 02:11:45;;;;;;;18.57;9.83;;;;;;;38.18;46.37;100502.72;4992478;28;20452;-79
2022/03/09 02:14:38;;;;;;;20.07;10.67;;;;;;;37.81;46.75;100512.19;4974931;28;20432;-80
2022/03/09 02:17:14;;;;;;;14.60;9.03;;;;;;;38.12;46.43;100497.75;4974894;28;20507;-80
2022/03/09 02:19:43;;;;;;;16.00;7.83;;;;;;;38.22;46.23;100504.78;4974879;28;20432;-80
2022/03/09 02:22:27;;;;;;;18.67;9.10;;;;;;;37.98;46.97;100502.50;4975043;28;20433;-79
2022/03/09 02:24:54;;;;;;;15.30;7.83;;;;;;;38.23;46.16;100500.97;4992043;28;20472;-80
2022/03/09 02:27:20;;;;;;;15.23;7.80;;;;;;;38.22;46.51;100502.09;4974297;28;20437;-80
2022/03/09 02:29:51;;;;;;;15.73;8.37;;;;;;;38.57;45.64;100506.44;4974866;28;20435;-79
2022/03/09 02:32:19;;;;;;;20.87;8.13;;;;;;;38.15;46.50;100497.13;4973983;28;20463;-79
2022/03/09 02:34:45;;;;;;;19.87;9.80;;;;;;;38.42;46.11;100498.78;4974898;28;20445;-79
2022/03/09 02:37:12;;;;;;;20.30;9.23;;;;;;;38.30;46.52;100499.41;4974787;28;20435;-80
2022/03/09 02:39:38;;;;;;;17.37;8.97;;;;;;;38.54;45.96;100506.28;4974267;28;20425;-77
2022/03/09 02:42:05;;;;;;;19.50;10.40;;;;;;;38.33;46.42;100506.13;4974067;28;20865;-78
2022/03/09 02:44:32;;;;;;;12.90;7.40;;;;;;;38.50;45.95;100494.50;4974718;28;20500;-77
2022/03/09 02:46:58;;;;;;;16.20;8.93;;;;;;;38.56;45.72;100502.16;4974816;28;20420;-79
2022/03/09 02:49:25;;;;;;;11.97;7.23;;;;;;;38.52;45.82;100494.97;4974582;28;20449;-78
2022/03/09 02:51:52;;;;;;;20.90;9.33;;;;;;;38.42;46.43;100498.78;4974620;28;20480;-79
2022/03/09 02:54:18;;;;;;;16.67;8.87;;;;;;;38.56;45.53;100507.56;4974636;28;20421;-79
2022/03/09 02:56:44;;;;;;;18.93;10.13;;;;;;;38.41;45.97;100483.66;4974528;28;20429;-78
2022/03/09 02:59:11;;;;;;;18.37;10.50;;;;;;;38.38;45.92;100476.16;4974596;28;20933;-78
2022/03/09 03:01:37;;;;;;;18.57;8.13;;;;;;;38.09;46.22;100474.81;4973500;28;20460;-77
2022/03/09 03:04:03;;;;;;;22.30;10.83;;;;;;;38.32;46.06;100478.22;4976480;28;20452;-77
2022/03/09 03:06:30;;;;;;;17.00;8.83;;;;;;;38.00;46.58;100475.91;4977982;28;20957;-77
2022/03/09 03:08:56;;;;;;;11.67;7.47;;;;;;;38.39;45.84;100470.41;4978054;28;20521;-77
2022/03/09 03:11:22;;;;;;;11.30;7.40;;;;;;;38.41;45.76;100475.50;4977815;28;20543;-77
2022/03/09 03:13:51;;;;;;;14.70;9.40;;;;;;;38.44;45.79;100469.47;4977932;28;20455;-80
2022/03/09 03:16:18;;;;;;;14.33;7.07;;;;;;;38.65;45.32;100469.59;4977833;28;20968;-80
2022/03/09 03:18:44;;;;;;;10.50;7.73;;;;;;;38.43;45.93;100476.00;4977832;28;20421;-80
2022/03/09 03:21:10;;;;;;;20.33;11.70;;;;;;;38.75;45.15;100479.38;4977940;28;20435;-79
2022/03/09 03:23:36;;;;;;;20.97;8.77;;;;;;;38.83;45.32;100475.84;4977759;28;20425;-77
2022/03/09 03:26:05;;;;;;;17.90;8.47;;;;;;;38.91;45.10;100475.81;4977573;28;20933;-76
2022/03/09 03:28:31;;;;;;;26.10;10.00;;;;;;;38.89;45.24;100478.06;4977589;28;20455;-79
2022/03/09 03:30:58;;;;;;;33.67;10.43;;;;;;;38.86;44.91;100475.22;4977615;28;20543;-80
2022/03/09 03:33:24;;;;;;;14.97;9.13;;;;;;;38.79;45.17;100485.72;4977513;28;20527;-79
2022/03/09 03:35:52;;;;;;;18.93;8.70;;;;;;;38.84;45.00;100483.66;4977662;28;20452;-77
2022/03/09 03:38:18;;;;;;;22.27;12.27;;;;;;;38.71;44.82;100479.16;4977474;28;20433;-77
2022/03/09 03:40:45;;;;;;;18.87;9.07;;;;;;;38.77;44.80;100479.84;4977349;28;21044;-77
2022/03/09 03:43:12;;;;;;;14.93;6.90;;;;;;;38.75;44.86;100479.38;4977374;28;20429;-79
2022/03/09 03:45:38;;;;;;;19.27;12.00;;;;;;;38.54;45.07;100474.56;4977499;28;20422;-79
2022/03/09 03:48:05;;;;;;;25.27;10.93;;;;;;;38.42;45.47;100475.19;4977462;28;20448;-79
2022/03/09 03:50:31;;;;;;;18.27;10.07;;;;;;;38.54;45.72;100488.09;4977181;28;20476;-79
2022/03/09 03:52:58;;;;;;;27.93;11.43;;;;;;;38.23;46.22;100484.72;4977425;28;20500;-79
2022/03/09 03:55:24;;;;;;;18.30;8.30;;;;;;;38.44;45.54;100470.25;4977259;28;20429;-79
2022/03/09 03:57:50;;;;;;;21.30;9.77;;;;;;;38.49;45.62;100474.75;4977213;28;20862;-79
2022/03/09 04:00:17;;;;;;;17.80;9.73;;;;;;;38.52;45.74;100473.28;4977419;28;20433;-79
2022/03/09 04:02:43;;;;;;;23.63;7.97;;;;;;;38.63;45.31;100478.06;4994653;28;20405;-79
2022/03/09 04:05:09;;;;;;;13.80;8.87;;;;;;;38.77;45.19;100480.63;4977092;28;20433;-79
2022/03/09 04:07:35;;;;;;;17.47;9.37;;;;;;;38.69;45.30;100482.22;4976443;28;20441;-79
2022/03/09 04:10:03;;;;;;;18.10;8.33;;;;;;;38.83;45.20;100492.09;4994400;28;20465;-79
2022/03/09 04:12:29;;;;;;;17.80;9.20;;;;;;;38.76;45.09;100494.50;4976998;28;20926;-79
2022/03/09 04:14:56;;;;;;;20.10;10.40;;;;;;;38.72;44.97;100496.25;4975016;28;20917;-79
2022/03/09 04:17:22;;;;;;;16.70;10.27;;;;;;;38.86;44.57;100491.47;4976756;28;20798;-79
2022/03/09 04:19:49;;;;;;;14.30;8.27;;;;;;;38.87;44.92;100503.91;4976756;28;20429;-77
2022/03/09 04:22:15;;;;;;;20.33;9.33;;;;;;;38.78;44.99;100503.91;4976819;28;20436;-77
2022/03/09 04:24:41;;;;;;;23.87;9.83;;;;;;;38.75;45.22;100503.78;4976966;28;20966;-79
2022/03/09 04:27:08;;;;;;;20.23;10.80;;;;;;;38.77;45.09;100496.91;4994171;28;20410;-80
2022/03/09 04:29:34;;;;;;;24.17;10.10;;;;;;;38.33;45.91;100501.50;4976726;28;20433;-77
2022/03/09 04:32:00;;;;;;;16.27;9.10;;;;;;;38.47;45.41;100500.53;4975998;28;20573;-77
2022/03/09 04:34:26;;;;;;;16.07;8.13;;;;;;;38.48;45.73;100502.94;4976401;28;20977;-77
2022/03/09 04:36:52;;;;;;;12.47;7.23;;;;;;;38.48;45.57;100507.56;4975655;28;20437;-77
2022/03/09 04:39:18;;;;;;;19.77;7.90;;;;;;;38.66;44.87;100512.66;4976272;28;20410;-80
2022/03/09 04:41:45;;;;;;;15.30;8.10;;;;;;;38.64;45.26;100509.47;4976434;28;20508;-80
2022/03/09 04:44:11;;;;;;;19.40;8.43;;;;;;;38.60;45.42;100519.34;4976134;28;20453;-79
2022/03/09 04:46:37;;;;;;;27.40;9.70;;;;;;;38.41;45.84;100514.25;4976380;28;20428;-79
2022/03/09 04:49:03;;;;;;;20.63;8.93;;;;;;;38.66;45.18;100520.78;4976236;28;20450;-81
2022/03/09 04:51:29;;;;;;;17.83;9.43;;;;;;;38.68;45.62;100520.50;4976139;28;20469;-81
2022/03/09 04:53:55;;;;;;;23.53;8.30;;;;;;;38.53;45.49;100512.81;4993083;28;20533;-81
2022/03/09 04:56:22;;;;;;;20.67;9.33;;;;;;;38.55;45.92;100516.81;4959896;28;20456;-79
2022/03/09 04:58:48;;;;;;;21.00;10.60;;;;;;;38.48;45.95;100513.75;4959909;28;20428;-81
2022/03/09 05:01:14;;;;;;;14.73;9.30;;;;;;;38.55;45.37;100524.97;4975922;28;20791;-79
2022/03/09 05:03:40;;;;;;;20.90;9.60;;;;;;;38.72;45.21;100532.31;4975658;28;20422;-79
2022/03/09 05:06:06;;;;;;;23.13;9.67;;;;;;;38.40;46.00;100526.19;4975508;28;20461;-81
2022/03/09 05:08:33;;;;;;;17.37;7.60;;;;;;;38.43;45.92;100530.22;4975849;28;20811;-81
2022/03/09 05:11:00;;;;;;;19.73;8.67;;;;;;;38.26;46.25;100530.97;4992976;28;20473;-78
2022/03/09 05:13:26;;;;;;;20.33;9.97;;;;;;;38.52;45.26;100541.84;4976095;28;20952;-79
2022/03/09 05:15:52;;;;;;;17.50;9.33;;;;;;;38.62;45.09;100533.41;4975770;28;20511;-79
2022/03/09 05:18:18;;;;;;;18.00;10.27;;;;;;;38.70;44.83;100542.66;4975362;28;20425;-79
2022/03/09 05:20:47;;;;;;;16.50;9.07;;;;;;;38.60;45.37;100549.16;4975532;28;20436;-79
2022/03/09 05:23:13;;;;;;;19.70;9.90;;;;;;;38.80;45.06;100555.13;4992975;28;20409;-78
2022/03/09 05:25:40;;;;;;;23.17;9.10;;;;;;;38.84;45.15;100556.84;4975360;28;20501;-79
2022/03/09 05:28:06;;;;;;;22.23;10.57;;;;;;;38.80;44.89;100561.34;4974579;28;20444;-84
2022/03/09 05:30:32;;;;;;;13.30;9.17;;;;;;;38.77;44.59;100561.19;4975388;28;21012;-81
2022/03/09 05:32:58;;;;;;;12.97;7.83;;;;;;;38.65;45.23;100565.28;4966662;28;20479;-81
2022/03/09 05:35:24;;;;;;;14.77;9.20;;;;;;;38.62;44.90;100567.84;4952965;29;20510;-80
2022/03/09 05:37:51;;;;;;;20.87;9.87;;;;;;;38.54;45.36;100565.91;4952437;29;20523;-80
2022/03/09 05:40:17;;;;;;;22.97;9.53;;;;;;;38.70;45.09;100567.84;4952933;29;20947;-82
2022/03/09 05:42:43;;;;;;;12.83;8.63;;;;;;;38.62;44.92;100574.06;4952179;29;20427;-83
2022/03/09 05:45:11;;;;;;;19.57;10.00;;;;;;;38.75;44.63;100577.78;4952738;29;20435;-82
2022/03/09 05:47:37;;;;;;;21.03;11.30;;;;;;;38.82;44.64;100572.66;4952578;29;20462;-80
2022/03/09 05:50:04;;;;;;;21.10;10.23;;;;;;;38.79;45.35;100577.91;4992155;23;20487;-82
2022/03/09 05:52:30;;;;;;;30.40;11.80;;;;;;;38.46;45.82;100586.47;5019746;28;20522;-79
2022/03/09 05:54:56;;;;;;;16.67;8.87;;;;;;;38.49;45.74;100585.84;5020031;28;20423;-79
2022/03/09 05:57:23;;;;;;;23.77;9.63;;;;;;;38.53;45.32;100592.22;5025986;28;20526;-77
2022/03/09 05:59:50;;;;;;;15.37;8.53;;;;;;;38.56;45.29;100588.88;5020794;28;20426;-77
2022/03/09 06:02:17;;;;;;;17.67;9.03;;;;;;;38.58;45.22;100596.69;5021481;28;20463;-78
2022/03/09 06:04:45;;;;;;;17.90;10.50;;;;;;;38.36;45.76;100600.31;5020671;28;20896;-77
2022/03/09 06:07:11;;;;;;;16.80;9.97;;;;;;;38.51;45.39;100609.91;5023481;28;20419;-81
2022/03/09 06:09:38;;;;;;;19.40;10.27;;;;;;;38.61;45.27;100615.00;5002519;28;20455;-78
2022/03/09 06:12:04;;;;;;;22.07;10.77;;;;;;;38.60;45.11;100621.56;5023701;28;20455;-80
2022/03/09 06:14:30;;;;;;;23.47;10.60;;;;;;;38.75;45.30;100620.34;5023146;28;20442;-74
2022/03/09 06:16:58;;;;;;;21.23;12.57;;;;;;;38.44;45.91;100621.22;5029172;28;20438;-82
2022/03/09 06:19:24;;;;;;;16.10;8.80;;;;;;;38.51;45.89;100621.56;5010644;28;20463;-77
2022/03/09 06:21:50;;;;;;;17.00;9.10;;;;;;;38.50;45.50;100635.44;5029879;28;20432;-78
2022/03/09 06:24:18;;;;;;;17.03;8.50;;;;;;;37.98;46.96;100630.59;5030019;28;20451;-79
2022/03/09 06:26:45;;;;;;;15.97;9.67;;;;;;;38.24;46.67;100636.09;5014738;28;20424;-80
2022/03/09 06:29:11;;;;;;;21.43;10.77;;;;;;;38.51;45.77;100635.09;5015561;28;20420;-76
2022/03/09 06:31:38;;;;;;;19.63;9.27;;;;;;;38.35;46.28;100640.16;5020317;28;20463;-79
2022/03/09 06:34:05;;;;;;;22.73;12.40;;;;;;;38.70;45.33;100641.03;5018917;28;20420;-78
2022/03/09 06:36:31;;;;;;;25.00;10.80;;;;;;;38.78;45.29;100638.69;5017471;28;20880;-79
2022/03/09 06:38:57;;;;;;;22.00;9.57;;;;;;;38.97;44.92;100647.31;5021566;28;20544;-77
2022/03/09 06:41:23;;;;;;;16.60;9.70;;;;;;;38.81;45.27;100657.03;5025356;28;20788;-78
2022/03/09 06:43:50;;;;;;;13.30;10.53;;;;;;;38.74;45.07;100651.28;5023625;28;20424;-80
2022/03/09 06:46:16;;;;;;;24.73;10.13;;;;;;;38.82;44.99;100666.75;5030645;28;20951;-75
2022/03/09 06:48:43;;;;;;;25.33;12.47;;;;;;;38.66;45.29;100663.66;5033375;28;20431;-75
2022/03/09 06:51:09;;;;;;;28.60;11.27;;;;;;;38.87;44.71;100670.13;5032597;28;20522;-79
2022/03/09 06:53:35;;;;;;;23.40;11.10;;;;;;;39.02;44.43;100677.00;5032142;28;20419;-77
2022/03/09 06:56:02;;;;;;;13.27;8.50;;;;;;;38.89;44.92;100673.31;5032043;28;20419;-74
2022/03/09 06:58:28;;;;;;;21.03;10.27;;;;;;;38.74;45.08;100678.41;5031733;28;20435;-74
2022/03/09 07:00:55;;;;;;;17.77;11.67;;;;;;;38.68;45.01;100686.66;5031771;28;20416;-77
2022/03/09 07:03:22;;;;;;;17.90;10.27;;;;;;;38.39;45.91;100689.91;5031963;28;20481;-76
2022/03/09 07:05:48;;;;;;;15.37;9.30;;;;;;;38.57;45.48;100692.69;5031890;28;20435;-73
2022/03/09 07:08:14;;;;;;;17.60;9.23;;;;;;;38.85;44.65;100699.44;5033791;28;20427;-78
2022/03/09 07:10:41;;;;;;;32.53;13.20;;;;;;;38.94;44.65;100702.19;5033594;28;20481;-74
2022/03/09 07:13:07;;;;;;;19.90;10.43;;;;;;;39.06;44.41;100705.09;5022900;28;20428;-73
2022/03/09 07:15:33;;;;;;;20.97;11.97;;;;;;;38.87;44.76;100699.16;5013773;28;20936;-76
2022/03/09 07:17:59;;;;;;;18.50;8.03;;;;;;;39.16;44.22;100709.41;5012483;28;20417;-76
2022/03/09 07:20:26;;;;;;;19.40;11.33;;;;;;;38.81;44.72;100709.34;5013734;28;20405;-78
2022/03/09 07:22:52;;;;;;;15.30;8.73;;;;;;;39.07;44.47;100712.09;5015055;28;20407;-78
2022/03/09 07:25:18;;;;;;;27.50;11.07;;;;;;;39.06;44.30;100713.22;5013505;28;20425;-77
2022/03/09 07:27:44;;;;;;;30.10;11.83;;;;;;;39.20;44.29;100713.09;5024428;28;20939;-76
2022/03/09 07:30:11;;;;;;;23.80;13.27;;;;;;;39.18;44.38;100715.34;5031204;28;20886;-76
2022/03/09 07:32:38;;;;;;;15.73;9.17;;;;;;;39.25;43.80;100729.22;5032264;28;20920;-77
2022/03/09 07:35:05;;;;;;;24.73;9.90;;;;;;;39.14;44.11;100731.41;5032898;28;20504;-75
2022/03/09 07:37:31;;;;;;;12.70;8.57;;;;;;;39.32;43.71;100740.41;5032459;28;20467;-75
2022/03/09 07:39:57;;;;;;;20.40;10.10;;;;;;;39.18;43.91;100750.59;5031795;28;20469;-74
2022/03/09 07:42:23;;;;;;;19.90;11.00;;;;;;;39.26;44.03;100747.09;5031684;28;20566;-74
2022/03/09 07:44:49;;;;;;;22.60;11.70;;;;;;;39.35;43.87;100764.19;5031491;28;20443;-75
2022/03/09 07:47:15;;;;;;;24.90;12.40;;;;;;;39.29;44.07;100764.66;5031665;28;20423;-76
2022/03/09 07:49:42;;;;;;;34.00;12.47;;;;;;;39.22;44.10;100770.53;5031998;28;20424;-76
2022/03/09 07:52:08;;;;;;;18.40;8.87;;;;;;;39.25;43.94;100769.13;5032038;28;20909;-74
2022/03/09 07:54:35;;;;;;;13.27;9.30;;;;;;;39.29;44.35;100768.19;5031872;28;20927;-73
2022/03/09 07:57:01;;;;;;;17.20;9.27;;;;;;;39.37;43.87;100772.00;5032844;28;20831;-74
2022/03/09 07:59:28;;;;;;;44.87;11.33;;;;;;;39.38;43.98;100777.13;5032660;28;20450;-77
2022/03/09 08:01:55;;;;;;;30.87;11.70;;;;;;;39.09;44.61;100772.25;5031589;28;20426;-74
2022/03/09 08:04:22;;;;;;;24.23;9.90;;;;;;;39.12;44.48;100771.63;5032050;28;20418;-75
2022/03/09 08:06:52;;;;;;;13.23;9.03;;;;;;;38.96;44.85;100778.59;5032482;28;20419;-75
2022/03/09 08:09:19;;;;;;;26.93;11.17;;;;;;;39.11;44.66;100785.53;5032450;28;20447;-76
2022/03/09 08:11:45;;;;;;;15.17;8.80;;;;;;;39.22;44.29;100790.34;5032454;28;20493;-75
2022/03/09 08:14:12;;;;;;;14.90;9.63;;;;;;;39.18;44.44;100780.44;5032392;28;20407;-75
2022/03/09 08:16:39;;;;;;;16.33;8.30;;;;;;;39.27;44.04;100792.09;5032417;28;20412;-78
2022/03/09 08:19:05;;;;;;;21.03;9.90;;;;;;;39.31;43.80;100782.22;5032265;28;20419;-75
2022/03/09 08:21:32;;;;;;;16.53;11.33;;;;;;;39.40;43.96;100783.00;5032136;28;20863;-77
2022/03/09 08:23:58;;;;;;;20.40;11.13;;;;;;;39.29;44.27;100780.94;5032423;28;20530;-77
2022/03/09 08:26:25;;;;;;;25.20;10.73;;;;;;;39.45;43.93;100788.28;5031353;28;20462;-75
2022/03/09 08:28:51;;;;;;;14.90;8.47;;;;;;;39.45;43.96;100777.44;5032205;28;20459;-77
2022/03/09 08:31:17;;;;;;;24.43;11.83;;;;;;;39.45;43.75;100779.34;5031140;28;20475;-75
2022/03/09 08:33:44;;;;;;;17.20;9.10;;;;;;;39.23;43.88;100794.66;5032170;28;20430;-74
2022/03/09 08:36:13;;;;;;;20.53;9.93;;;;;;;39.25;43.93;100785.41;5032010;28;20424;-77
2022/03/09 08:38:39;;;;;;;29.13;11.67;;;;;;;39.29;43.87;100789.06;5031941;28;20486;-75
2022/03/09 08:41:05;;;;;;;16.73;10.90;;;;;;;39.46;43.43;100792.59;5032044;28;20412;-75
2022/03/09 08:43:32;;;;;;;19.93;8.97;;;;;;;39.37;43.45;100791.81;5031880;28;20485;-75
2022/03/09 08:45:58;;;;;;;12.60;9.33;;;;;;;39.32;43.70;100800.09;5031773;28;20424;-75
2022/03/09 08:48:27;;;;;;;18.47;8.97;;;;;;;39.48;43.47;100792.31;5031794;28;20511;-77
2022/03/09 08:50:54;;;;;;;18.53;9.80;;;;;;;39.31;43.54;100789.56;5031533;28;21091;-77
2022/03/09 08:53:21;;;;;;;16.20;7.83;;;;;;;39.49;43.17;100793.91;5031315;28;20424;-75
2022/03/09 08:55:48;;;;;;;10.03;8.20;;;;;;;39.39;43.40;100795.00;5031453;28;20924;-75
2022/03/09 08:58:14;;;;;;;17.97;10.23;;;;;;;39.60;42.67;100794.38;5031053;28;20546;-75
2022/03/09 09:00:41;;;;;;;18.37;10.47;;;;;;;39.42;43.49;100794.38;5031093;28;20502;-73
2022/03/09 09:03:07;;;;;;;14.00;9.20;;;;;;;39.57;43.05;100789.59;5031325;28;20407;-75
2022/03/09 09:05:33;;;;;;;16.33;10.73;;;;;;;39.47;43.09;100796.09;5028443;28;20419;-77
2022/03/09 09:07:59;;;;;;;14.90;9.40;;;;;;;39.49;43.06;100796.63;5031038;28;20477;-75
2022/03/09 09:10:26;;;;;;;16.87;11.03;;;;;;;39.54;43.03;100796.47;5030987;28;20459;-76
2022/03/09 09:12:53;;;;;;;19.20;9.23;;;;;;;39.70;42.86;100797.59;5031270;28;20945;-77
2022/03/09 09:15:22;;;;;;;14.90;8.47;;;;;;;39.69;43.21;100797.91;5031348;28;20431;-75
2022/03/09 09:17:48;;;;;;;15.10;9.70;;;;;;;39.74;43.20;100805.91;5031395;28;20412;-75
2022/03/09 09:20:14;;;;;;;18.03;8.67;;;;;;;39.79;43.24;100805.75;5031127;28;20834;-75
2022/03/09 09:22:42;;;;;;;13.90;9.57;;;;;;;39.76;42.77;100811.81;5031068;28;20443;-77
2022/03/09 09:25:10;;;;;;;21.80;9.27;;;;;;;39.88;42.68;100814.66;5031181;28;20432;-76
2022/03/09 09:27:37;;;;;;;17.00;8.50;;;;;;;39.81;42.48;100817.06;5032555;28;20922;-77
2022/03/09 09:30:04;;;;;;;18.10;8.63;;;;;;;39.72;43.02;100817.09;5031098;28;20416;-79
2022/03/09 09:32:30;;;;;;;15.47;8.67;;;;;;;39.75;42.78;100813.72;5030471;28;20420;-84
2022/03/09 09:34:56;;;;;;;14.60;7.63;;;;;;;39.82;42.21;100820.59;5030002;28;20475;-85
2022/03/09 09:37:22;;;;;;;15.63;9.43;;;;;;;39.74;42.68;100808.63;5030609;28;20419;-86
2022/03/09 09:39:49;;;;;;;18.00;9.53;;;;;;;39.83;42.46;100814.03;5030469;28;20521;-84
2022/03/09 09:42:15;;;;;;;18.27;9.13;;;;;;;39.61;43.41;100810.38;5031056;28;20426;-86
2022/03/09 09:44:43;;;;;;;14.70;8.83;;;;;;;39.64;43.04;100812.44;5030545;28;20446;-86
2022/03/09 09:47:14;;;;;;;21.70;10.27;;;;;;;39.61;42.66;100810.38;5030785;28;20467;-84
2022/03/09 09:49:43;;;;;;;14.27;8.17;;;;;;;39.57;42.80;100808.59;5030476;28;20443;-76
2022/03/09 09:52:10;;;;;;;16.70;8.20;;;;;;;39.70;42.66;100797.59;5030757;28;20463;-79
2022/03/09 09:54:36;;;;;;;18.70;9.23;;;;;;;39.69;42.57;100797.91;5030030;28;20446;-82
2022/03/09 09:57:03;;;;;;;16.10;9.20;;;;;;;39.72;42.54;100806.22;5030745;28;20419;-74
2022/03/09 09:59:30;;;;;;;14.50;9.70;;;;;;;39.66;43.00;100796.66;5030788;28;20447;-76
2022/03/09 10:01:58;;;;;;;19.57;8.63;;;;;;;39.86;42.44;100792.47;5030470;28;21001;-80
2022/03/09 10:04:24;;;;;;;18.03;8.60;;;;;;;39.78;42.78;100792.47;5030599;28;20510;-79
2022/03/09 10:06:51;;;;;;;15.33;7.60;;;;;;;39.93;42.62;100783.84;5030537;28;20427;-78
2022/03/09 10:09:19;;;;;;;18.07;9.10;;;;;;;40.03;42.02;100781.59;5030062;28;20439;-78
2022/03/09 10:11:53;;;;;;;16.67;7.10;;;;;;;39.90;42.06;100777.16;5030538;28;20473;-81
2022/03/09 10:14:43;;;;;;;14.20;8.83;;;;;;;39.92;42.53;100787.69;5034939;28;20971;-79
2022/03/09 10:17:15;;;;;;;13.07;9.40;;;;;;;39.85;42.35;100780.03;5034593;28;20439;-78
2022/03/09 10:19:58;;;;;;;12.33;7.63;;;;;;;39.92;42.29;100779.53;5034569;28;20443;-79
2022/03/09 10:22:33;;;;;;;21.00;9.80;;;;;;;39.64;43.06;100790.72;5034522;28;20416;-80
2022/03/09 10:25:22;;;;;;;16.50;9.07;;;;;;;39.91;42.35;100780.66;5034561;28;20419;-74
2022/03/09 10:27:54;;;;;;;16.30;9.63;;;;;;;39.81;42.46;100778.25;5034554;28;20426;-77
2022/03/09 10:30:29;;;;;;;17.90;9.67;;;;;;;39.78;42.77;100777.00;5033943;28;20459;-77
2022/03/09 10:33:01;;;;;;;18.13;10.20;;;;;;;39.82;42.67;100779.84;5034408;28;20410;-84
2022/03/09 10:35:30;;;;;;;18.80;8.13;;;;;;;39.88;42.82;100771.22;5034297;28;20973;-83
2022/03/09 10:38:02;;;;;;;17.50;10.13;;;;;;;39.84;42.97;100769.47;5034331;28;20845;-83
2022/03/09 10:40:30;;;;;;;16.83;10.00;;;;;;;39.92;42.75;100776.81;5034108;28;20909;-79
2022/03/09 10:43:13;;;;;;;16.53;10.90;;;;;;;39.91;42.54;100765.16;5034186;28;20431;-80
2022/03/09 10:45:59;;;;;;;17.40;9.30;;;;;;;39.90;42.73;100762.75;5034179;28;20422;-83
2022/03/09 10:49:01;;;;;;;15.90;8.70;;;;;;;39.76;43.23;100758.28;5034221;28;20403;-84
2022/03/09 10:51:34;;;;;;;18.23;8.43;;;;;;;39.79;42.97;100751.44;4974164;28;20473;-83
2022/03/09 10:54:04;;;;;;;18.33;8.20;;;;;;;39.92;42.55;100753.16;5021686;28;20969;-80
2022/03/09 10:56:32;;;;;;;11.30;6.90;;;;;;;40.10;41.95;100751.25;5033615;28;20423;-83
2022/03/09 10:59:11;;;;;;;21.53;10.30;;;;;;;40.06;42.07;100763.88;5033909;28;20935;-82
2022/03/09 11:01:38;;;;;;;15.93;9.50;;;;;;;40.03;42.74;100746.28;5034772;28;20430;-78
2022/03/09 11:04:19;;;;;;;20.97;9.40;;;;;;;40.19;42.48;100743.84;5033164;28;20431;-75
2022/03/09 11:06:49;;;;;;;27.33;10.17;;;;;;;40.09;42.29;100738.00;5033564;28;20419;-75
2022/03/09 11:09:17;;;;;;;27.83;10.17;;;;;;;40.00;42.57;100736.03;5033647;28;20509;-75
2022/03/09 11:11:46;;;;;;;13.27;9.70;;;;;;;39.84;42.85;100734.16;5033628;28;21060;-77
2022/03/09 11:14:14;;;;;;;15.03;8.83;;;;;;;39.86;42.74;100730.00;5033659;28;20411;-76
2022/03/09 11:16:42;;;;;;;24.97;10.03;;;;;;;39.84;43.03;100731.44;5033486;28;20443;-74
2022/03/09 11:19:13;;;;;;;21.63;9.00;;;;;;;39.97;42.87;100730.47;5033458;28;20867;-74